Huntersville, NC

1:40 PM EDT on October 02, 2014 (GMT -0400)
Huntersville (Crown Ridge) | Change Station
CLOSE
Current Station
Personal Weather Station
Location: Huntersville, NC
Elevation: 758 ft
Nearby Weather Stations

Elev 758 ft 35.42 °N, 80.83 °W | Updated 20 seconds ago

Clear
Clear
82.6 °F
Feels Like 91 °F
N
4.5
Wind Variable Wind from South
Gusts 6.0 mph

Today
High -- | Low -- °F
--% Chance of Precip.
Yesterday
High -- | Low -- °F
Precip. -- in
7:19 AM 7:05 PM
First Quarter, 60% visible
Pressure 30.14 in
Visibility 10.0 miles
Clouds Clear
Heat Index 91 °F
Dew Point 77 °F
Humidity 83%
Rainfall 0.00 in
Snow Depth Not available.
UV 8 out of 12
Pollen 4.60 out of 12
Ozone Good
PM2.5 Moderate
Flu Activity Not available.
METAR KJQF 021656Z 00000KT 10SM CLR 27/17 A3014

More Conditions Fewer Conditions

Pressure 30.14 in
Visibility 10.0 miles
Clouds Clear
Heat Index 91 °F
Dew Point 77 °F
Humidity 83%
Rainfall 0.00 in
Snow Depth Not available.
UV 8 out of 12
Pollen 4.60 out of 12
Ozone Good
PM2.5 Moderate
Flu Activity Not available.
METAR KJQF 021656Z 00000KT 10SM CLR 27/17 A3014

More Conditions Fewer Conditions

10-Day Weather Forecast

Almanac

Astronomy

Oct. 02, 2014 Rise Set
Actual Time 7:19 AM EDT 7:05 PM EDT
Civil Twilight 6:53 AM EDT 7:31 PM EDT
Nautical Twilight 6:24 AM EDT 8:00 PM EDT
Astronomical Twilight 5:54 AM EDT 8:30 PM EDT
Moon 2:59 PM EDT 12:46 AM EDT
Length of Visible Light 12h 37m
Length of Day
11h 46m
Tomorrow will be 2m 12s shorter.
First Quarter, 60% of the Moon is Illuminated
Today
First Quarter
Oct 8
Full
Oct 15
Last Quarter
Oct 23
New
Oct 30
First Quarter

Today's Extremes

State Highs State Lows

Community

WunderPhotos

Upload Photos

1,758,312 photos uploaded!

Nearby

Air Quality

  Air Quality AQ Index Pollutant
Yesterday Moderate
PM2.5
Yesterday Good
OZONE
Current Moderate
PM2.5
Current Good
OZONE
Thursday Moderate
PM2.5
Thursday Moderate
OZONE
Friday Moderate
PM2.5
Friday Good
OZONE
Saturday Good
OZONE
Saturday Good
PM2.5
Sunday Good
OZONE
Sunday Good
PM2.5

Snow Depth

Station Depth Elevation
No new snow has been reported.

Earthquake Activity

City Distance Mag. Time & Date
No recent earthquake activity has been reported nearby.
Minimum magnitude displayed is 2.5.

Coastal Water Temperatures

Place Temperature
No Stations Reporting

Nearby Weather Stations